Andes — 5BFM3 — position and weather

sailwx.info

Track history (hours):
 
Tides and Currents Weather Stations Pressure Air Temp Water Temp Dewpoint Dewpoint Depression Visibility Wind Speed Wind Dir Waves Ship Positions

Andes

Last reported at 2015-Jul-24 11:17 UTC. Time now 2015-Aug-02 10:20 UTC.
Position N 30°50' E 032°19'.
Warning: this ship's position is 8 days out of date.

Length 182 m; draft 11.1 m.

Type: Ship. MMSI: 209394000.

Date/timePositionNaut miles runAvg speedWind from/ knotsBaromVisibWave heightAir tempDewpointWater temp
2015-Jul-24 11:17N 30°50' E 032°19'910.1
2015-Jul-24 10:23N 30°59' E 032°19'910.1
2015-Jul-24 09:32N 31°07' E 032°18'15 6.5
2015-Jul-24 07:10N 31°23' E 032°19'0 0.1
2015-Jul-24 06:32N 31°23' E 032°19'0 0.0
2015-Jul-24 04:32N 31°23' E 032°19'0 0.0
2015-Jul-24 03:29N 31°23' E 032°19'0 0.0
2015-Jul-24 01:29N 31°23' E 032°19'0 0.0
2015-Jul-24 00:32N 31°23' E 032°19'0 0.0
2015-Jul-23 23:32N 31°23' E 032°19'0 0.0
2015-Jul-23 22:32N 31°23' E 032°19'0 0.0
2015-Jul-23 20:29N 31°23' E 032°19'0 0.1
2015-Jul-23 15:33N 31°23' E 032°19'8 8.4
2015-Jul-23 14:34N 31°30' E 032°14'1212.5
2015-Jul-23 13:33N 31°39' E 032°04'1312.6
2015-Jul-23 12:33N 31°48' E 031°53'1313.0
2015-Jul-23 11:33N 31°56' E 031°42'1412.9
2015-Jul-23 10:30N 32°05' E 031°29'1212.7
2015-Jul-23 09:33N 32°13' E 031°18'1312.6
2015-Jul-23 08:33N 32°19' E 031°06'1312.7
2015-Jul-23 07:33N 32°23' E 030°51'1212.5
2015-Jul-23 06:33N 32°29' E 030°38'2612.5
2015-Jul-23 04:29N 32°35' E 030°08'1612.2
2015-Jul-23 03:12N 32°40' E 029°50'812.2
2015-Jul-23 02:33N 32°42' E 029°41'1212.2
2015-Jul-23 01:33N 32°45' E 029°27'1312.5
2015-Jul-23 00:33N 32°49' E 029°13'1312.6
2015-Jul-22 23:33N 32°52' E 028°59'1312.6
2015-Jul-22 22:32N 32°56' E 028°44'1412.7
2015-Jul-22 21:28N 32°59' E 028°28'2813.0
2015-Jul-22 19:18N 33°07' E 027°56'1213.4
2015-Jul-22 18:25N 33°10' E 027°43'1113.1
2015-Jul-22 17:33N 33°13' E 027°29'1313.1
2015-Jul-22 16:33N 33°17' E 027°14'55513.1
2015-Jul-20 22:09N 35°49' E 016°26'913.3
2015-Jul-20 21:29N 35°51' E 016°15'1212.9
2015-Jul-20 20:33N 35°54' E 016°01'1212.4
2015-Jul-20 19:33N 35°57' E 015°46'1312.3
2015-Jul-20 18:30N 36°01' E 015°31'1212.6
2015-Jul-20 17:33N 36°04' E 015°17'1312.7
2015-Jul-20 16:33N 36°08' E 015°01'1312.5
2015-Jul-20 15:33N 36°11' E 014°46'1312.8
2015-Jul-20 14:33N 36°15' E 014°31'1312.7
2015-Jul-20 13:33N 36°19' E 014°16'1313.0
2015-Jul-20 12:33N 36°24' E 014°02'1313.0
2015-Jul-20 11:33N 36°28' E 013°46'1313.1
2015-Jul-20 10:33N 36°33' E 013°31'1313.1
2015-Jul-20 09:33N 36°38' E 013°16'1312.8
2015-Jul-20 08:33N 36°42' E 013°01'1313.0
2015-Jul-20 07:33N 36°46' E 012°46'1413.6
2015-Jul-20 06:33N 36°51' E 012°30'1413.8
2015-Jul-20 05:33N 36°56' E 012°14'1413.8
2015-Jul-20 04:33N 37°02' E 011°58'1413.8
2015-Jul-20 03:33N 37°08' E 011°43'1313.3
2015-Jul-20 02:33N 37°15' E 011°28'1413.6
2015-Jul-20 01:33N 37°21' E 011°13'1413.9
2015-Jul-20 00:33N 37°27' E 010°57'1414.2
2015-Jul-19 23:33N 37°35' E 010°42'1414.1
2015-Jul-19 22:33N 37°43' E 010°27'1313.4
2015-Jul-19 21:33N 37°53' E 010°16'1313.4
2015-Jul-19 20:33N 38°03' E 010°06'1313.3
2015-Jul-19 19:33N 38°13' E 009°55'1313.3
2015-Jul-19 18:34N 38°23' E 009°43'1313.3
2015-Jul-19 17:33N 38°33' E 009°32'1313.0
2015-Jul-19 16:33N 38°45' E 009°25'1313.3
2015-Jul-19 15:33N 38°56' E 009°15'1212.4
2015-Jul-19 14:33N 39°05' E 009°05'1 0.7
2015-Jul-19 13:33N 39°06' E 009°04'0 0.2
2015-Jul-19 12:33N 39°05' E 009°04'1 1.2
2015-Jul-19 11:28N 39°05' E 009°02'0 0.0
2015-Jul-19 10:34N 39°05' E 009°02'0 0.0
2015-Jul-19 09:34N 39°05' E 009°02'0 0.0
2015-Jul-19 08:34N 39°05' E 009°02'0 0.0
2015-Jul-19 07:34N 39°05' E 009°02'0 0.0
2015-Jul-19 06:34N 39°05' E 009°02'0 0.0
2015-Jul-19 05:34N 39°05' E 009°02'0 0.0
2015-Jul-19 04:34N 39°05' E 009°02'0 0.0
2015-Jul-19 00:33N 39°05' E 009°02'0 0.0
2015-Jul-18 23:34N 39°05' E 009°02'0 0.0
2015-Jul-18 22:34N 39°05' E 009°02'0 0.0
2015-Jul-18 21:34N 39°05' E 009°02'0 0.0
2015-Jul-18 20:34N 39°05' E 009°02'0 0.0
2015-Jul-18 19:31N 39°05' E 009°02'0 0.0
2015-Jul-18 18:34N 39°05' E 009°02'0 0.0
2015-Jul-18 17:34N 39°05' E 009°02'0 0.0
2015-Jul-18 16:34N 39°05' E 009°02'0 0.0
2015-Jul-18 15:34N 39°05' E 009°02'0 0.0
2015-Jul-18 14:34N 39°05' E 009°02'0 0.0
2015-Jul-18 13:34N 39°05' E 009°02'0 0.0
2015-Jul-18 12:34N 39°05' E 009°02'0 0.0
2015-Jul-18 11:34N 39°05' E 009°02'0 0.0
2015-Jul-18 10:28N 39°05' E 009°02'0 0.0
2015-Jul-18 09:33N 39°05' E 009°02'0 0.0
2015-Jul-18 08:34N 39°05' E 009°02'0 0.0
2015-Jul-18 07:34N 39°05' E 009°02'0 0.0
2015-Jul-17 19:22N 39°05' E 009°02'0 0.0
2015-Jul-17 18:16N 39°05' E 009°02'0 0.0
2015-Jul-17 16:19N 39°05' E 009°02'0 0.0
2015-Jul-17 15:22N 39°05' E 009°02'0 0.0
2015-Jul-17 14:34N 39°05' E 009°02'0 0.0
2015-Jul-17 13:31N 39°05' E 009°02'0 0.0
2015-Jul-17 12:34N 39°05' E 009°02'0 0.0
2015-Jul-17 11:19N 39°05' E 009°02'0 0.0
2015-Jul-17 10:31N 39°05' E 009°02'0 0.0
2015-Jul-17 09:31N 39°05' E 009°02'0 0.0
2015-Jul-17 08:16N 39°05' E 009°02'0 0.0
2015-Jul-17 07:34N 39°05' E 009°02'0 0.0
2015-Jul-17 06:34N 39°05' E 009°02'0 0.0
2015-Jul-17 05:34N 39°05' E 009°02'0 0.0
2015-Jul-17 04:28N 39°05' E 009°02'0 0.0
2015-Jul-17 02:29N 39°05' E 009°02'2 2.1
2015-Jul-17 01:34N 39°04' E 009°04'0 0.2
2015-Jul-17 00:25N 39°04' E 009°04'0 0.0
2015-Jul-16 23:28N 39°04' E 009°04'0 0.0
2015-Jul-16 22:31N 39°04' E 009°04'0 0.0
2015-Jul-16 21:31N 39°04' E 009°04'0 0.0
2015-Jul-16 20:28N 39°04' E 009°04'0 0.0
2015-Jul-16 19:28N 39°04' E 009°04'0 0.0
2015-Jul-16 18:31N 39°04' E 009°04'0 0.0
2015-Jul-16 17:28N 39°04' E 009°04'0 0.0
2015-Jul-16 16:31N 39°04' E 009°04'0 0.0
2015-Jul-16 15:22N 39°04' E 009°04'0 0.0
2015-Jul-16 14:25N 39°04' E 009°04'0 0.0
2015-Jul-16 13:10N 39°04' E 009°04'0 0.0
2015-Jul-16 12:31N 39°04' E 009°04'0 0.0
2015-Jul-16 11:16N 39°04' E 009°04'0 0.1
2015-Jul-16 10:28N 39°04' E 009°04'0 0.0
2015-Jul-16 09:10N 39°04' E 009°04'0 0.0
2015-Jul-16 08:31N 39°04' E 009°04'0 0.0
2015-Jul-16 07:28N 39°04' E 009°04'0 0.0
2015-Jul-16 05:22N 39°04' E 009°04'0 0.0
2015-Jul-16 02:31N 39°04' E 009°04'0 0.0
2015-Jul-16 01:25N 39°04' E 009°04'0 0.0
2015-Jul-16 00:31N 39°04' E 009°04'0 0.1
2015-Jul-15 23:13N 39°04' E 009°04'0 0.1
2015-Jul-15 22:31N 39°04' E 009°04'0 0.1
2015-Jul-15 21:28N 39°04' E 009°04'0 0.0
2015-Jul-15 20:31N 39°04' E 009°04'0 0.0
2015-Jul-15 19:22N 39°04' E 009°04'0 0.0
2015-Jul-15 18:28N 39°04' E 009°04'0 0.0
2015-Jul-15 17:28N 39°04' E 009°04'0 0.0
2015-Jul-15 16:31N 39°04' E 009°04'0 0.0
2015-Jul-15 15:28N 39°04' E 009°04'0 0.0
2015-Jul-15 14:19N 39°04' E 009°04'0 0.0
2015-Jul-15 13:28N 39°04' E 009°04'0 0.0
2015-Jul-15 12:16N 39°04' E 009°04'0 0.0
2015-Jul-15 11:28N 39°04' E 009°04'0 0.1
2015-Jul-15 10:22N 39°04' E 009°04'0 0.0
2015-Jul-15 09:22N 39°04' E 009°04'0 0.0
2015-Jul-15 08:25N 39°04' E 009°04'0 0.0
2015-Jul-15 07:19N 39°04' E 009°04'0 0.0
2015-Jul-15 06:31N 39°04' E 009°04'0 0.0
2015-Jul-15 05:25N 39°04' E 009°04'0 0.0
2015-Jul-15 04:31N 39°04' E 009°04'0 0.0
2015-Jul-15 03:25N 39°04' E 009°04'0 0.0
2015-Jul-15 02:25N 39°04' E 009°04'0 0.0
2015-Jul-15 01:28N 39°04' E 009°04'0 0.0
2015-Jul-15 00:31N 39°04' E 009°04'0 0.0
2015-Jul-14 23:25N 39°04' E 009°04'0 0.0
2015-Jul-14 22:28N 39°04' E 009°04'0 0.0
2015-Jul-14 21:22N 39°04' E 009°04'0 0.1
2015-Jul-14 20:25N 39°04' E 009°04'0 0.0
2015-Jul-14 19:31N 39°04' E 009°04'0 0.0
2015-Jul-14 18:31N 39°04' E 009°04'0 0.0
2015-Jul-14 17:13N 39°04' E 009°04'0 0.0
2015-Jul-14 16:25N 39°04' E 009°04'0 0.0
2015-Jul-14 15:31N 39°04' E 009°04'0 0.1
2015-Jul-14 14:31N 39°04' E 009°04'0 0.0
2015-Jul-14 13:28N 39°04' E 009°04'0 0.0
2015-Jul-14 12:31N 39°04' E 009°04'0 0.0
2015-Jul-14 11:19N 39°04' E 009°04'  
Track history (hours):
 
Tides and Currents Weather Stations Pressure Air Temp Water Temp Dewpoint Dewpoint Depression Visibility Wind Speed Wind Dir Waves Ship Positions

Andes

Last reported at 2015-Jul-24 11:17 UTC. Time now 2015-Aug-02 10:20 UTC.
Position N 30°50' E 032°19'.
Warning: this ship's position is 8 days out of date.

Length 182 m; draft 11.1 m.

Type: Ship. MMSI: 209394000.

Date/timePositionNaut miles runAvg speedWind from/ knotsBaromVisibWave heightAir tempDewpointWater temp
2015-Jul-24 11:17N 30°50' E 032°19'910.1
2015-Jul-24 10:23N 30°59' E 032°19'910.1
2015-Jul-24 09:32N 31°07' E 032°18'15 6.5
2015-Jul-24 07:10N 31°23' E 032°19'0 0.1
2015-Jul-24 06:32N 31°23' E 032°19'0 0.0
2015-Jul-24 04:32N 31°23' E 032°19'0 0.0
2015-Jul-24 03:29N 31°23' E 032°19'0 0.0
2015-Jul-24 01:29N 31°23' E 032°19'0 0.0
2015-Jul-24 00:32N 31°23' E 032°19'0 0.0
2015-Jul-23 23:32N 31°23' E 032°19'0 0.0
2015-Jul-23 22:32N 31°23' E 032°19'0 0.0
2015-Jul-23 20:29N 31°23' E 032°19'0 0.1
2015-Jul-23 15:33N 31°23' E 032°19'8 8.4
2015-Jul-23 14:34N 31°30' E 032°14'1212.5
2015-Jul-23 13:33N 31°39' E 032°04'1312.6
2015-Jul-23 12:33N 31°48' E 031°53'1313.0
2015-Jul-23 11:33N 31°56' E 031°42'1412.9
2015-Jul-23 10:30N 32°05' E 031°29'1212.7
2015-Jul-23 09:33N 32°13' E 031°18'1312.6
2015-Jul-23 08:33N 32°19' E 031°06'1312.7
2015-Jul-23 07:33N 32°23' E 030°51'1212.5
2015-Jul-23 06:33N 32°29' E 030°38'2612.5
2015-Jul-23 04:29N 32°35' E 030°08'1612.2
2015-Jul-23 03:12N 32°40' E 029°50'812.2
2015-Jul-23 02:33N 32°42' E 029°41'1212.2
2015-Jul-23 01:33N 32°45' E 029°27'1312.5
2015-Jul-23 00:33N 32°49' E 029°13'1312.6
2015-Jul-22 23:33N 32°52' E 028°59'1312.6
2015-Jul-22 22:32N 32°56' E 028°44'1412.7
2015-Jul-22 21:28N 32°59' E 028°28'2813.0
2015-Jul-22 19:18N 33°07' E 027°56'1213.4
2015-Jul-22 18:25N 33°10' E 027°43'1113.1
2015-Jul-22 17:33N 33°13' E 027°29'1313.1
2015-Jul-22 16:33N 33°17' E 027°14'55513.1
2015-Jul-20 22:09N 35°49' E 016°26'913.3
2015-Jul-20 21:29N 35°51' E 016°15'1212.9
2015-Jul-20 20:33N 35°54' E 016°01'1212.4
2015-Jul-20 19:33N 35°57' E 015°46'1312.3
2015-Jul-20 18:30N 36°01' E 015°31'1212.6
2015-Jul-20 17:33N 36°04' E 015°17'1312.7
2015-Jul-20 16:33N 36°08' E 015°01'1312.5
2015-Jul-20 15:33N 36°11' E 014°46'1312.8
2015-Jul-20 14:33N 36°15' E 014°31'1312.7
2015-Jul-20 13:33N 36°19' E 014°16'1313.0
2015-Jul-20 12:33N 36°24' E 014°02'1313.0
2015-Jul-20 11:33N 36°28' E 013°46'1313.1
2015-Jul-20 10:33N 36°33' E 013°31'1313.1
2015-Jul-20 09:33N 36°38' E 013°16'1312.8
2015-Jul-20 08:33N 36°42' E 013°01'1313.0
2015-Jul-20 07:33N 36°46' E 012°46'1413.6
2015-Jul-20 06:33N 36°51' E 012°30'1413.8
2015-Jul-20 05:33N 36°56' E 012°14'1413.8
2015-Jul-20 04:33N 37°02' E 011°58'1413.8
2015-Jul-20 03:33N 37°08' E 011°43'1313.3
2015-Jul-20 02:33N 37°15' E 011°28'1413.6
2015-Jul-20 01:33N 37°21' E 011°13'1413.9
2015-Jul-20 00:33N 37°27' E 010°57'1414.2
2015-Jul-19 23:33N 37°35' E 010°42'1414.1
2015-Jul-19 22:33N 37°43' E 010°27'1313.4
2015-Jul-19 21:33N 37°53' E 010°16'1313.4
2015-Jul-19 20:33N 38°03' E 010°06'1313.3
2015-Jul-19 19:33N 38°13' E 009°55'1313.3
2015-Jul-19 18:34N 38°23' E 009°43'1313.3
2015-Jul-19 17:33N 38°33' E 009°32'1313.0
2015-Jul-19 16:33N 38°45' E 009°25'1313.3
2015-Jul-19 15:33N 38°56' E 009°15'1212.4
2015-Jul-19 14:33N 39°05' E 009°05'1 0.7
2015-Jul-19 13:33N 39°06' E 009°04'0 0.2
2015-Jul-19 12:33N 39°05' E 009°04'1 1.2
2015-Jul-19 11:28N 39°05' E 009°02'0 0.0
2015-Jul-19 10:34N 39°05' E 009°02'0 0.0
2015-Jul-19 09:34N 39°05' E 009°02'0 0.0
2015-Jul-19 08:34N 39°05' E 009°02'0 0.0
2015-Jul-19 07:34N 39°05' E 009°02'0 0.0
2015-Jul-19 06:34N 39°05' E 009°02'0 0.0
2015-Jul-19 05:34N 39°05' E 009°02'0 0.0
2015-Jul-19 04:34N 39°05' E 009°02'0 0.0
2015-Jul-19 00:33N 39°05' E 009°02'0 0.0
2015-Jul-18 23:34N 39°05' E 009°02'0 0.0
2015-Jul-18 22:34N 39°05' E 009°02'0 0.0
2015-Jul-18 21:34N 39°05' E 009°02'0 0.0
2015-Jul-18 20:34N 39°05' E 009°02'0 0.0
2015-Jul-18 19:31N 39°05' E 009°02'0 0.0
2015-Jul-18 18:34N 39°05' E 009°02'0 0.0
2015-Jul-18 17:34N 39°05' E 009°02'0 0.0
2015-Jul-18 16:34N 39°05' E 009°02'0 0.0
2015-Jul-18 15:34N 39°05' E 009°02'0 0.0
2015-Jul-18 14:34N 39°05' E 009°02'0 0.0
2015-Jul-18 13:34N 39°05' E 009°02'0 0.0
2015-Jul-18 12:34N 39°05' E 009°02'0 0.0
2015-Jul-18 11:34N 39°05' E 009°02'0 0.0
2015-Jul-18 10:28N 39°05' E 009°02'0 0.0
2015-Jul-18 09:33N 39°05' E 009°02'0 0.0
2015-Jul-18 08:34N 39°05' E 009°02'0 0.0
2015-Jul-18 07:34N 39°05' E 009°02'0 0.0
2015-Jul-17 19:22N 39°05' E 009°02'0 0.0
2015-Jul-17 18:16N 39°05' E 009°02'0 0.0
2015-Jul-17 16:19N 39°05' E 009°02'0 0.0
2015-Jul-17 15:22N 39°05' E 009°02'0 0.0
2015-Jul-17 14:34N 39°05' E 009°02'0 0.0
2015-Jul-17 13:31N 39°05' E 009°02'0 0.0
2015-Jul-17 12:34N 39°05' E 009°02'0 0.0
2015-Jul-17 11:19N 39°05' E 009°02'0 0.0
2015-Jul-17 10:31N 39°05' E 009°02'0 0.0
2015-Jul-17 09:31N 39°05' E 009°02'0 0.0
2015-Jul-17 08:16N 39°05' E 009°02'0 0.0
2015-Jul-17 07:34N 39°05' E 009°02'0 0.0
2015-Jul-17 06:34N 39°05' E 009°02'0 0.0
2015-Jul-17 05:34N 39°05' E 009°02'0 0.0
2015-Jul-17 04:28N 39°05' E 009°02'0 0.0
2015-Jul-17 02:29N 39°05' E 009°02'2 2.1
2015-Jul-17 01:34N 39°04' E 009°04'0 0.2
2015-Jul-17 00:25N 39°04' E 009°04'0 0.0
2015-Jul-16 23:28N 39°04' E 009°04'0 0.0
2015-Jul-16 22:31N 39°04' E 009°04'0 0.0
2015-Jul-16 21:31N 39°04' E 009°04'0 0.0
2015-Jul-16 20:28N 39°04' E 009°04'0 0.0
2015-Jul-16 19:28N 39°04' E 009°04'0 0.0
2015-Jul-16 18:31N 39°04' E 009°04'0 0.0
2015-Jul-16 17:28N 39°04' E 009°04'0 0.0
2015-Jul-16 16:31N 39°04' E 009°04'0 0.0
2015-Jul-16 15:22N 39°04' E 009°04'0 0.0
2015-Jul-16 14:25N 39°04' E 009°04'0 0.0
2015-Jul-16 13:10N 39°04' E 009°04'0 0.0
2015-Jul-16 12:31N 39°04' E 009°04'0 0.0
2015-Jul-16 11:16N 39°04' E 009°04'0 0.1
2015-Jul-16 10:28N 39°04' E 009°04'0 0.0
2015-Jul-16 09:10N 39°04' E 009°04'0 0.0
2015-Jul-16 08:31N 39°04' E 009°04'0 0.0
2015-Jul-16 07:28N 39°04' E 009°04'0 0.0
2015-Jul-16 05:22N 39°04' E 009°04'0 0.0
2015-Jul-16 02:31N 39°04' E 009°04'0 0.0
2015-Jul-16 01:25N 39°04' E 009°04'0 0.0
2015-Jul-16 00:31N 39°04' E 009°04'0 0.1
2015-Jul-15 23:13N 39°04' E 009°04'0 0.1
2015-Jul-15 22:31N 39°04' E 009°04'0 0.1
2015-Jul-15 21:28N 39°04' E 009°04'0 0.0
2015-Jul-15 20:31N 39°04' E 009°04'0 0.0
2015-Jul-15 19:22N 39°04' E 009°04'0 0.0
2015-Jul-15 18:28N 39°04' E 009°04'0 0.0
2015-Jul-15 17:28N 39°04' E 009°04'0 0.0
2015-Jul-15 16:31N 39°04' E 009°04'0 0.0
2015-Jul-15 15:28N 39°04' E 009°04'0 0.0
2015-Jul-15 14:19N 39°04' E 009°04'0 0.0
2015-Jul-15 13:28N 39°04' E 009°04'0 0.0
2015-Jul-15 12:16N 39°04' E 009°04'0 0.0
2015-Jul-15 11:28N 39°04' E 009°04'0 0.1
2015-Jul-15 10:22N 39°04' E 009°04'0 0.0
2015-Jul-15 09:22N 39°04' E 009°04'0 0.0
2015-Jul-15 08:25N 39°04' E 009°04'0 0.0
2015-Jul-15 07:19N 39°04' E 009°04'0 0.0
2015-Jul-15 06:31N 39°04' E 009°04'0 0.0
2015-Jul-15 05:25N 39°04' E 009°04'0 0.0
2015-Jul-15 04:31N 39°04' E 009°04'0 0.0
2015-Jul-15 03:25N 39°04' E 009°04'0 0.0
2015-Jul-15 02:25N 39°04' E 009°04'0 0.0
2015-Jul-15 01:28N 39°04' E 009°04'0 0.0
2015-Jul-15 00:31N 39°04' E 009°04'0 0.0
2015-Jul-14 23:25N 39°04' E 009°04'0 0.0
2015-Jul-14 22:28N 39°04' E 009°04'0 0.0
2015-Jul-14 21:22N 39°04' E 009°04'0 0.1
2015-Jul-14 20:25N 39°04' E 009°04'0 0.0
2015-Jul-14 19:31N 39°04' E 009°04'0 0.0
2015-Jul-14 18:31N 39°04' E 009°04'0 0.0
2015-Jul-14 17:13N 39°04' E 009°04'0 0.0
2015-Jul-14 16:25N 39°04' E 009°04'0 0.0
2015-Jul-14 15:31N 39°04' E 009°04'0 0.1
2015-Jul-14 14:31N 39°04' E 009°04'0 0.0
2015-Jul-14 13:28N 39°04' E 009°04'0 0.0
2015-Jul-14 12:31N 39°04' E 009°04'0 0.0
2015-Jul-14 11:19N 39°04' E 009°04'  

Dump ship's entire track history